KCAK/CAK METAR and TAF weather

Enter ICAO airport designator
Station Type Date Time Source
KCAK METAR 2022/07/01 01:51 UTC NOAA

KCAK 010151Z 18007KT 10SM FEW250 24/13 A3008 RMK AO2 SLP176 T02440128


Station Type Date Time Source
KCAK Decoded METAR 2022/07/01 01:51 UTC NOAA

AKRON-CANTON REGIONAL AIRPORT , OH, United States (KCAK) 40-55N 081-27W 377M
Jun 30, 2022 - 09:51 PM EDT / 2022.07.01 0151 UTC
Wind: from the S (180 degrees) at 8 MPH (7 KT):0
Visibility: 10 mile(s):0
Sky conditions: mostly clear
Temperature: 75.9 F (24.4 C)
Dew Point: 55.0 F (12.8 C)
Relative Humidity: 48%
Pressure (altimeter): 30.08 in. Hg (1018 hPa)
ob: KCAK 010151Z 18007KT 10SM FEW250 24/13 A3008 RMK AO2 SLP176 T02440128
cycle: 2

Station Type Date Time Source
KCAK TAF 2022/06/30 18:39 UTC NOAA

TAF KCAK 301736Z 3018/0118 20010KT P6SM FEW060
FM010100 20005KT P6SM SCT120
FM011600 24012G20KT P6SM SCT060

Example: see airport list